createdAt,value
2018-09-20T00:00:38.803Z,4.50
2018-09-20T00:01:38.807Z,4.30
2018-09-20T00:02:38.778Z,4.70
2018-09-20T00:03:38.802Z,4.90
2018-09-20T00:04:38.765Z,4.10
2018-09-20T00:05:38.742Z,4.50
2018-09-20T00:06:38.768Z,4.70
2018-09-20T00:07:38.727Z,4.60
2018-09-20T00:08:38.712Z,4.40
2018-09-20T00:09:38.744Z,4.30
2018-09-20T00:10:38.693Z,4.50
2018-09-20T00:11:38.687Z,4.60
2018-09-20T00:12:38.666Z,4.70
2018-09-20T00:13:38.664Z,4.80
2018-09-20T00:14:38.660Z,4.30
2018-09-20T00:15:38.662Z,4.60
2018-09-20T00:16:38.632Z,4.70
2018-09-20T00:17:38.628Z,5.00
2018-09-20T00:18:38.607Z,5.00
2018-09-20T00:19:38.606Z,4.90
2018-09-20T00:20:38.659Z,4.30
2018-09-20T00:21:38.571Z,4.60
2018-09-20T00:22:38.571Z,4.50
2018-09-20T00:23:38.564Z,4.70
2018-09-20T00:24:38.548Z,5.00
2018-09-20T00:25:38.563Z,5.00
2018-09-20T00:26:38.523Z,5.20
2018-09-20T00:27:38.555Z,5.10
2018-09-20T00:28:38.505Z,4.80
2018-09-20T00:29:38.484Z,4.70
2018-09-20T00:30:38.508Z,4.80
2018-09-20T00:31:38.532Z,5.10
2018-09-20T00:32:38.486Z,5.10
2018-09-20T00:33:38.446Z,4.90
2018-09-20T00:34:38.436Z,4.70
2018-09-20T00:35:38.418Z,4.80
2018-09-20T00:36:38.466Z,4.60
2018-09-20T00:37:38.399Z,4.70
2018-09-20T00:38:38.404Z,4.90
2018-09-20T00:39:38.396Z,4.60
2018-09-20T00:40:38.370Z,4.70
2018-09-20T00:41:38.374Z,4.90
2018-09-20T00:42:38.394Z,4.50
2018-09-20T00:43:38.350Z,4.90
2018-09-20T00:44:38.328Z,4.70
2018-09-20T00:45:38.314Z,4.70
2018-09-20T00:46:38.308Z,4.40
2018-09-20T00:47:38.310Z,4.50
2018-09-20T00:48:38.318Z,4.70
2018-09-20T00:49:38.276Z,4.70
2018-09-20T00:50:38.289Z,5.10
2018-09-20T00:51:38.245Z,4.50
2018-09-20T00:52:38.229Z,4.50
2018-09-20T00:53:38.237Z,4.60
2018-09-20T00:54:38.266Z,4.70
2018-09-20T00:55:38.213Z,4.50
2018-09-20T00:56:38.195Z,4.80
2018-09-20T00:57:38.216Z,4.60
2018-09-20T00:58:38.176Z,4.80
2018-09-20T00:59:38.157Z,4.90
2018-09-20T01:00:38.170Z,5.10
2018-09-20T01:01:38.141Z,4.70
2018-09-20T01:02:38.120Z,5.00
2018-09-20T01:03:38.138Z,4.80
2018-09-20T01:04:38.099Z,4.60
2018-09-20T01:05:38.121Z,4.90
2018-09-20T01:06:38.128Z,4.50
2018-09-20T01:07:38.068Z,4.80
2018-09-20T01:08:38.055Z,5.20
2018-09-20T01:09:38.050Z,4.60
2018-09-20T01:10:38.035Z,4.60
2018-09-20T01:11:38.056Z,5.10
2018-09-20T01:12:38.039Z,4.70
2018-09-20T01:13:38.002Z,4.90
2018-09-20T01:14:38.010Z,4.90
2018-09-20T01:15:37.977Z,5.20
2018-09-20T01:16:38.010Z,4.50
2018-09-20T01:17:38.031Z,4.90
2018-09-20T01:18:37.956Z,4.50
2018-09-20T01:19:37.974Z,4.80
2018-09-20T01:20:37.927Z,4.60
2018-09-20T01:21:37.981Z,5.10
2018-09-20T01:22:37.904Z,4.90
2018-09-20T01:23:37.892Z,5.10
2018-09-20T01:24:37.892Z,5.20
2018-09-20T01:25:37.869Z,4.70
2018-09-20T01:26:37.908Z,4.90
2018-09-20T01:27:37.857Z,5.20
2018-09-20T01:28:37.868Z,5.30
2018-09-20T01:29:37.839Z,4.80
2018-09-20T01:30:37.830Z,5.40
2018-09-20T01:31:37.847Z,4.60
2018-09-20T01:32:37.793Z,4.90
2018-09-20T01:33:37.787Z,5.20
2018-09-20T01:34:37.779Z,5.70
2018-09-20T01:35:37.765Z,5.30
2018-09-20T01:36:37.758Z,5.10
2018-09-20T01:37:37.788Z,4.80
2018-09-20T01:38:37.740Z,5.10
2018-09-20T01:39:37.739Z,5.20
2018-09-20T01:40:37.713Z,5.10
2018-09-20T01:41:37.695Z,4.90
2018-09-20T01:42:37.717Z,4.70
2018-09-20T01:43:37.689Z,4.70
2018-09-20T01:44:37.673Z,5.10
2018-09-20T01:45:37.664Z,4.70
2018-09-20T01:46:37.644Z,5.60
2018-09-20T01:47:37.723Z,4.70
2018-09-20T01:48:37.621Z,4.90
2018-09-20T01:49:37.610Z,4.60
2018-09-20T01:50:37.600Z,4.90
2018-09-20T01:51:37.596Z,5.60
2018-09-20T01:52:37.584Z,5.50
2018-09-20T01:53:37.587Z,4.90
2018-09-20T01:54:37.565Z,5.20
2018-09-20T01:55:37.571Z,5.20
2018-09-20T01:56:37.530Z,5.60
2018-09-20T01:57:37.525Z,5.10
2018-09-20T01:58:37.534Z,5.10
2018-09-20T01:59:37.504Z,5.50
2018-09-20T02:00:37.488Z,6.00
2018-09-20T02:01:37.474Z,5.30
2018-09-20T02:02:37.506Z,5.20
2018-09-20T02:03:37.504Z,5.30
2018-09-20T02:04:37.455Z,5.40
2018-09-20T02:05:37.444Z,5.50
2018-09-20T02:06:37.420Z,5.60
2018-09-20T02:07:37.424Z,5.70
2018-09-20T02:08:37.421Z,5.50
2018-09-20T02:09:37.412Z,5.50
2018-09-20T02:10:37.434Z,5.40
2018-09-20T02:11:37.372Z,5.60
2018-09-20T02:12:37.353Z,4.70
2018-09-20T02:13:37.376Z,5.80
2018-09-20T02:14:37.334Z,5.40
2018-09-20T02:15:37.348Z,5.60
2018-09-20T02:16:37.315Z,5.30
2018-09-20T02:17:37.306Z,5.30
2018-09-20T02:18:37.329Z,5.40
2018-09-20T02:19:37.296Z,5.20
2018-09-20T02:20:37.272Z,5.50
2018-09-20T02:21:37.261Z,5.60
2018-09-20T02:22:37.243Z,5.70
2018-09-20T02:23:37.272Z,5.40
2018-09-20T02:24:37.231Z,5.40
2018-09-20T02:25:37.275Z,5.50
2018-09-20T02:26:37.200Z,5.10
2018-09-20T02:27:37.191Z,5.60
2018-09-20T02:28:37.202Z,5.20
2018-09-20T02:29:37.208Z,5.30
2018-09-20T02:30:37.191Z,5.30
2018-09-20T02:31:37.146Z,5.40
2018-09-20T02:32:37.150Z,5.70
2018-09-20T02:33:37.178Z,5.30
2018-09-20T02:34:37.147Z,5.40
2018-09-20T02:35:37.120Z,6.00
2018-09-20T02:36:37.099Z,5.00
2018-09-20T02:37:37.088Z,5.20
2018-09-20T02:38:37.078Z,5.50
2018-09-20T02:39:37.070Z,6.00
2018-09-20T02:40:37.090Z,5.60
2018-09-20T02:41:37.048Z,5.60
2018-09-20T02:42:37.044Z,5.40
2018-09-20T02:43:37.021Z,5.10
2018-09-20T02:44:37.013Z,5.90
2018-09-20T02:45:37.028Z,5.50
2018-09-20T02:46:36.985Z,5.20
2018-09-20T02:47:36.978Z,5.30
2018-09-20T02:48:37.018Z,5.60
2018-09-20T02:49:36.956Z,5.20
2018-09-20T02:50:36.945Z,5.40
2018-09-20T02:51:36.958Z,5.30
2018-09-20T02:52:36.922Z,5.00
2018-09-20T02:53:36.912Z,5.40
2018-09-20T02:54:36.928Z,5.60
2018-09-20T02:55:36.893Z,5.40
2018-09-20T02:56:36.907Z,5.60
2018-09-20T02:57:36.884Z,5.10
2018-09-20T02:58:36.858Z,5.10
2018-09-20T02:59:36.859Z,5.30
2018-09-20T03:00:36.845Z,5.60
2018-09-20T03:01:36.875Z,5.50
2018-09-20T03:02:36.826Z,5.40
2018-09-20T03:03:36.800Z,5.60
2018-09-20T03:04:36.791Z,5.60
2018-09-20T03:05:36.784Z,5.20
2018-09-20T03:06:36.793Z,5.30
2018-09-20T03:07:36.775Z,5.50
2018-09-20T03:08:36.760Z,5.70
2018-09-20T03:09:36.738Z,5.70
2018-09-20T03:10:36.744Z,5.60
2018-09-20T03:11:36.774Z,6.10
2018-09-20T03:12:36.719Z,5.30
2018-09-20T03:13:36.690Z,5.70
2018-09-20T03:14:36.751Z,6.00
2018-09-20T03:15:36.675Z,5.50
2018-09-20T03:16:36.664Z,5.50
2018-09-20T03:17:36.670Z,5.90
2018-09-20T03:18:36.633Z,5.30
2018-09-20T03:19:36.702Z,5.30
2018-09-20T03:20:36.616Z,6.00
2018-09-20T03:21:36.609Z,5.30
2018-09-20T03:22:36.623Z,5.80
2018-09-20T03:23:36.589Z,5.50
2018-09-20T03:24:36.599Z,5.70
2018-09-20T03:25:36.585Z,5.80
2018-09-20T03:26:36.568Z,5.80
2018-09-20T03:27:36.540Z,5.90
2018-09-20T03:28:36.554Z,5.50
2018-09-20T03:29:36.523Z,5.30
2018-09-20T03:30:36.647Z,5.80
2018-09-20T03:31:36.504Z,5.50
2018-09-20T03:32:36.499Z,5.90
2018-09-20T03:33:36.520Z,5.70
2018-09-20T03:34:36.485Z,5.60
2018-09-20T03:35:36.464Z,5.50
2018-09-20T03:36:36.457Z,6.20
2018-09-20T03:37:36.434Z,6.00
2018-09-20T03:38:36.460Z,5.80
2018-09-20T03:39:36.418Z,5.60
2018-09-20T03:40:36.397Z,5.80
2018-09-20T03:41:36.467Z,5.40
2018-09-20T03:42:36.373Z,6.30
2018-09-20T03:43:36.376Z,6.00
2018-09-20T03:44:36.412Z,5.70
2018-09-20T03:45:36.357Z,6.00
2018-09-20T03:46:36.340Z,6.10
2018-09-20T03:47:36.339Z,6.10
2018-09-20T03:48:36.312Z,6.00
2018-09-20T03:49:36.308Z,6.20
2018-09-20T03:50:36.314Z,5.80
2018-09-20T03:51:36.288Z,5.20
2018-09-20T03:52:36.267Z,5.60
2018-09-20T03:53:36.258Z,6.00
2018-09-20T03:54:36.249Z,6.20
2018-09-20T03:55:36.257Z,5.70
2018-09-20T03:56:36.226Z,6.10
2018-09-20T03:57:36.247Z,6.00
2018-09-20T03:58:36.199Z,6.30
2018-09-20T03:59:36.188Z,6.10
2018-09-20T04:00:36.219Z,5.70
2018-09-20T04:01:36.174Z,5.50
2018-09-20T04:02:36.157Z,5.80
2018-09-20T04:03:36.158Z,5.60
2018-09-20T04:04:36.132Z,6.30
2018-09-20T04:05:36.127Z,6.20
2018-09-20T04:06:36.168Z,5.60
2018-09-20T04:07:36.160Z,5.90
2018-09-20T04:08:36.095Z,5.90
2018-09-20T04:09:36.093Z,5.70
2018-09-20T04:10:36.090Z,5.90
2018-09-20T04:11:36.070Z,5.90
2018-09-20T04:12:36.079Z,5.80
2018-09-20T04:13:36.042Z,5.60
2018-09-20T04:14:36.031Z,5.30
2018-09-20T04:15:36.022Z,6.00
2018-09-20T04:16:36.059Z,5.60
2018-09-20T04:17:35.997Z,5.70
2018-09-20T04:18:35.998Z,5.90
2018-09-20T04:19:36.000Z,6.20
2018-09-20T04:20:35.977Z,6.20
2018-09-20T04:21:35.958Z,5.90
2018-09-20T04:22:35.989Z,6.00
2018-09-20T04:23:35.949Z,5.70
2018-09-20T04:24:35.924Z,6.20
2018-09-20T04:25:35.941Z,6.10
2018-09-20T04:26:35.894Z,5.90
2018-09-20T04:27:35.944Z,5.90
2018-09-20T04:28:35.879Z,5.80
2018-09-20T04:29:35.884Z,6.00
2018-09-20T04:30:35.888Z,5.90
2018-09-20T04:31:35.888Z,5.90
2018-09-20T04:32:35.897Z,6.30
2018-09-20T04:33:35.843Z,5.90
2018-09-20T04:34:35.829Z,6.00
2018-09-20T04:35:35.809Z,6.60
2018-09-20T04:36:35.791Z,6.30
2018-09-20T04:37:35.815Z,6.00
2018-09-20T04:38:35.797Z,6.30
2018-09-20T04:39:35.758Z,5.90
2018-09-20T04:40:35.753Z,6.30
2018-09-20T04:41:35.749Z,6.50
2018-09-20T04:42:35.724Z,6.30
2018-09-20T04:43:35.744Z,6.30
2018-09-20T04:44:35.788Z,6.50
2018-09-20T04:45:35.700Z,6.10
2018-09-20T04:46:35.684Z,6.30
2018-09-20T04:47:35.682Z,6.30
2018-09-20T04:48:35.678Z,6.20
2018-09-20T04:49:35.696Z,6.00
2018-09-20T04:50:35.637Z,6.20
2018-09-20T04:51:35.637Z,6.40
2018-09-20T04:52:35.615Z,6.50
2018-09-20T04:53:35.612Z,6.50
2018-09-20T04:54:35.651Z,6.50
2018-09-20T04:55:35.588Z,6.00
2018-09-20T04:56:35.582Z,6.00
2018-09-20T04:57:35.572Z,6.00
2018-09-20T04:58:35.605Z,6.60
2018-09-20T04:59:35.538Z,6.00
2018-09-20T05:00:35.561Z,6.00
2018-09-20T05:01:35.516Z,5.90
2018-09-20T05:02:35.509Z,6.40
2018-09-20T05:03:35.562Z,6.10
2018-09-20T05:04:35.491Z,6.30
2018-09-20T05:05:35.522Z,6.20
2018-09-20T05:06:35.507Z,6.30
2018-09-20T05:07:35.454Z,6.60
2018-09-20T05:08:35.446Z,6.30
2018-09-20T05:09:35.467Z,6.00
2018-09-20T05:10:35.446Z,6.40
2018-09-20T05:11:35.413Z,6.70
2018-09-20T05:12:35.407Z,7.00
2018-09-20T05:13:35.424Z,6.60
2018-09-20T05:14:35.403Z,6.80
2018-09-20T05:15:35.396Z,6.60
2018-09-20T05:16:35.398Z,7.50
2018-09-20T05:17:35.342Z,6.90
2018-09-20T05:18:35.343Z,7.30
2018-09-20T05:19:35.368Z,7.10
2018-09-20T05:20:35.319Z,6.80
2018-09-20T05:21:35.346Z,6.80
2018-09-20T05:22:35.297Z,6.90
2018-09-20T05:23:35.285Z,7.00
2018-09-20T05:24:35.311Z,7.20
2018-09-20T05:25:35.258Z,7.20
2018-09-20T05:26:35.252Z,7.10
2018-09-20T05:27:35.306Z,6.90
2018-09-20T05:28:35.244Z,7.30
2018-09-20T05:29:35.216Z,7.00
2018-09-20T05:30:35.215Z,7.60
2018-09-20T05:31:35.219Z,7.30
2018-09-20T05:32:35.219Z,7.80
2018-09-20T05:33:35.196Z,7.90
2018-09-20T05:34:35.213Z,7.30
2018-09-20T05:35:35.277Z,7.40
2018-09-20T05:36:35.153Z,7.30
2018-09-20T05:37:35.145Z,7.30
2018-09-20T05:38:35.144Z,8.50
2018-09-20T05:39:35.133Z,8.10
2018-09-20T05:40:35.112Z,7.90
2018-09-20T05:41:35.091Z,7.30
2018-09-20T05:42:35.103Z,7.80
2018-09-20T05:43:35.146Z,7.80
2018-09-20T05:44:35.059Z,7.60
2018-09-20T05:45:35.069Z,7.90
2018-09-20T05:46:35.040Z,7.20
2018-09-20T05:47:35.048Z,7.70
2018-09-20T05:48:35.003Z,7.10
2018-09-20T05:49:35.000Z,7.60
2018-09-20T05:50:34.994Z,7.40
2018-09-20T05:51:34.983Z,6.90
2018-09-20T05:52:34.964Z,6.80
2018-09-20T05:53:34.974Z,7.10
2018-09-20T05:54:34.939Z,6.50
2018-09-20T05:55:34.940Z,6.70
2018-09-20T05:56:34.917Z,6.90
2018-09-20T05:57:34.913Z,6.30
2018-09-20T05:58:34.919Z,6.70
2018-09-20T05:59:34.921Z,6.60
2018-09-20T06:00:34.873Z,6.80
2018-09-20T06:01:34.865Z,6.50
2018-09-20T06:02:34.883Z,6.90
2018-09-20T06:03:34.840Z,6.50
2018-09-20T06:04:34.857Z,6.40
2018-09-20T06:05:34.844Z,6.50
2018-09-20T06:06:34.806Z,6.70
2018-09-20T06:07:34.798Z,6.80
2018-09-20T06:08:34.800Z,6.50
2018-09-20T06:09:34.808Z,6.70
2018-09-20T06:10:34.768Z,6.60
2018-09-20T06:11:34.752Z,6.70
2018-09-20T06:12:34.755Z,6.50
2018-09-20T06:13:34.731Z,6.50
2018-09-20T06:14:34.733Z,7.20
2018-09-20T06:15:34.763Z,7.00
2018-09-20T06:16:34.700Z,6.90
2018-09-20T06:17:34.710Z,6.70
2018-09-20T06:18:34.683Z,6.70
2018-09-20T06:19:34.693Z,7.10
2018-09-20T06:20:34.656Z,6.90
2018-09-20T06:21:34.672Z,6.90
2018-09-20T06:22:34.639Z,7.30
2018-09-20T06:23:34.623Z,7.00
2018-09-20T06:24:34.637Z,7.40
2018-09-20T06:25:34.649Z,7.10
2018-09-20T06:26:34.612Z,7.30
2018-09-20T06:27:34.628Z,6.80
2018-09-20T06:28:34.566Z,5.70
2018-09-20T06:29:34.563Z,6.00
2018-09-20T06:30:34.548Z,5.70
2018-09-20T06:31:34.612Z,5.70
2018-09-20T06:32:34.524Z,5.30
2018-09-20T06:33:34.514Z,5.40
2018-09-20T06:34:34.524Z,4.90
2018-09-20T06:35:34.494Z,5.40
2018-09-20T06:36:34.494Z,5.60
2018-09-20T06:37:34.512Z,5.30
2018-09-20T06:38:34.483Z,5.80
2018-09-20T06:39:34.462Z,4.90
2018-09-20T06:40:34.471Z,5.20
2018-09-20T06:41:34.438Z,5.40
2018-09-20T06:42:34.440Z,4.90
2018-09-20T06:43:34.409Z,5.00
2018-09-20T06:44:34.457Z,5.10
2018-09-20T06:45:34.395Z,4.60
2018-09-20T06:46:34.389Z,4.90
2018-09-20T06:47:34.409Z,5.10
2018-09-20T06:48:34.416Z,4.50
2018-09-20T06:49:34.338Z,4.90
2018-09-20T06:50:34.401Z,5.10
2018-09-20T06:51:34.339Z,4.70
2018-09-20T06:52:34.307Z,4.80
2018-09-20T06:53:34.324Z,5.10
2018-09-20T06:54:34.323Z,5.00
2018-09-20T06:55:34.285Z,5.00
2018-09-20T06:56:34.334Z,5.10
2018-09-20T06:57:34.256Z,5.00
2018-09-20T06:58:34.306Z,5.00
2018-09-20T06:59:34.241Z,4.90
2018-09-20T07:00:34.250Z,5.40
2018-09-20T07:01:34.258Z,5.50
2018-09-20T07:02:34.198Z,5.10
2018-09-20T07:03:34.195Z,5.60
2018-09-20T07:04:34.210Z,5.50
2018-09-20T07:05:34.179Z,5.60
2018-09-20T07:06:34.259Z,5.40
2018-09-20T07:07:34.157Z,4.60
2018-09-20T07:08:34.143Z,4.80
2018-09-20T07:09:34.153Z,5.20
2018-09-20T07:10:34.117Z,5.20
2018-09-20T07:11:34.122Z,5.10
2018-09-20T07:12:34.086Z,5.20
2018-09-20T07:13:34.150Z,5.40
2018-09-20T07:14:34.078Z,5.00
2018-09-20T07:15:34.087Z,5.00
2018-09-20T07:16:34.049Z,5.80
2018-09-20T07:17:34.032Z,5.60
2018-09-20T07:18:34.031Z,5.10
2018-09-20T07:19:34.028Z,5.70
2018-09-20T07:20:34.049Z,5.40
2018-09-20T07:21:34.067Z,5.40
2018-09-20T07:22:33.999Z,5.20
2018-09-20T07:23:33.986Z,5.10
2018-09-20T07:24:33.983Z,5.30
2018-09-20T07:25:34.002Z,4.70
2018-09-20T07:26:33.991Z,5.40
2018-09-20T07:27:33.929Z,5.30
2018-09-20T07:28:34.006Z,5.20
2018-09-20T07:29:33.906Z,4.90
2018-09-20T07:30:33.904Z,4.90
2018-09-20T07:31:33.921Z,5.10
2018-09-20T07:32:33.890Z,5.30
2018-09-20T07:33:33.862Z,5.20
2018-09-20T07:34:33.865Z,5.30
2018-09-20T07:35:33.847Z,5.70
2018-09-20T07:36:33.893Z,4.90
2018-09-20T07:37:33.832Z,4.80
2018-09-20T07:38:33.817Z,4.60
2018-09-20T07:39:33.835Z,4.70
2018-09-20T07:40:33.789Z,4.60
2018-09-20T07:41:33.776Z,4.70
2018-09-20T07:42:33.790Z,4.90
2018-09-20T07:43:33.856Z,4.70
2018-09-20T07:44:33.768Z,4.60
2018-09-20T07:45:33.745Z,4.90
2018-09-20T07:46:33.723Z,4.90
2018-09-20T07:47:33.757Z,4.50
2018-09-20T07:48:33.700Z,4.50
2018-09-20T07:49:33.694Z,4.80
2018-09-20T07:50:33.682Z,4.80
2018-09-20T07:51:33.674Z,4.90
2018-09-20T07:52:33.716Z,5.20
2018-09-20T07:53:33.708Z,4.20
2018-09-20T07:54:33.641Z,4.60
2018-09-20T07:55:33.673Z,5.10
2018-09-20T07:56:33.709Z,4.60
2018-09-20T07:57:33.612Z,4.30
2018-09-20T07:58:33.620Z,4.20
2018-09-20T07:59:33.588Z,4.10
2018-09-20T08:00:33.576Z,4.00
2018-09-20T08:01:33.614Z,4.40
2018-09-20T08:02:33.577Z,4.20
2018-09-20T08:03:33.572Z,4.10
2018-09-20T08:04:33.531Z,4.00
2018-09-20T08:05:33.532Z,4.00
2018-09-20T08:06:33.506Z,4.40
2018-09-20T08:07:33.562Z,3.90
2018-09-20T08:08:33.519Z,3.70
2018-09-20T08:09:33.479Z,3.90
2018-09-20T08:10:33.476Z,4.20
2018-09-20T08:11:33.448Z,4.20
2018-09-20T08:12:33.477Z,3.90
2018-09-20T08:13:33.429Z,4.30
2018-09-20T08:14:33.442Z,4.20
2018-09-20T08:15:33.411Z,4.20
2018-09-20T08:16:33.440Z,3.70
2018-09-20T08:17:33.397Z,4.00
2018-09-20T08:18:33.373Z,4.00
2018-09-20T08:19:33.360Z,4.40
2018-09-20T08:20:33.404Z,3.90
2018-09-20T08:21:33.394Z,3.90
2018-09-20T08:22:33.455Z,4.00
2018-09-20T08:23:33.321Z,3.60
2018-09-20T08:24:33.318Z,3.70
2018-09-20T08:25:33.318Z,3.30
2018-09-20T08:26:33.289Z,3.00
2018-09-20T08:27:33.273Z,3.10
2018-09-20T08:28:33.267Z,2.90
2018-09-20T08:29:33.252Z,3.10
2018-09-20T08:30:33.316Z,2.80
2018-09-20T08:31:33.271Z,2.50
2018-09-20T08:32:33.231Z,2.60
2018-09-20T08:33:33.219Z,2.80
2018-09-20T08:34:33.209Z,2.70
2018-09-20T08:35:33.196Z,3.10
2018-09-20T08:36:33.225Z,2.80
2018-09-20T08:37:33.243Z,2.70
2018-09-20T08:38:33.153Z,2.60
2018-09-20T08:39:33.158Z,2.60
2018-09-20T08:40:33.130Z,2.40
2018-09-20T08:41:33.165Z,3.00
2018-09-20T08:42:33.108Z,2.90
2018-09-20T08:43:33.285Z,2.80
2018-09-20T08:44:33.089Z,2.40
2018-09-20T08:45:33.075Z,2.80
2018-09-20T08:46:33.103Z,2.60
2018-09-20T08:47:33.082Z,2.60
2018-09-20T08:48:33.046Z,2.50
2018-09-20T08:49:33.050Z,2.60
2018-09-20T08:50:33.020Z,2.40
2018-09-20T08:51:33.025Z,2.50
2018-09-20T08:52:33.041Z,2.70
2018-09-20T08:53:33.012Z,2.60
2018-09-20T08:54:32.979Z,2.50
2018-09-20T08:55:32.971Z,2.60
2018-09-20T08:56:32.965Z,2.30
2018-09-20T08:57:33.048Z,2.50
2018-09-20T08:58:32.934Z,2.60
2018-09-20T08:59:32.923Z,2.50
2018-09-20T09:00:32.922Z,2.50
2018-09-20T09:01:32.900Z,3.20
2018-09-20T09:02:32.893Z,2.60
2018-09-20T09:03:32.917Z,2.20
2018-09-20T09:04:32.969Z,2.30
2018-09-20T09:05:32.867Z,2.60
2018-09-20T09:06:32.875Z,2.50
2018-09-20T09:07:32.843Z,2.50
2018-09-20T09:08:32.861Z,2.10
2018-09-20T09:09:32.859Z,2.50
2018-09-20T09:10:32.820Z,2.40
2018-09-20T09:11:32.800Z,2.80
2018-09-20T09:12:32.859Z,2.60
2018-09-20T09:13:32.865Z,2.50
2018-09-20T09:14:32.771Z,2.40
2018-09-20T09:15:32.753Z,3.00
2018-09-20T09:16:32.834Z,2.70
2018-09-20T09:17:32.735Z,2.50
2018-09-20T09:18:32.723Z,2.60
2018-09-20T09:19:32.740Z,2.90
2018-09-20T09:20:32.716Z,2.50
2018-09-20T09:21:32.693Z,2.80
2018-09-20T09:22:32.679Z,2.60
2018-09-20T09:23:32.720Z,2.60
2018-09-20T09:24:32.688Z,2.50
2018-09-20T09:25:32.650Z,2.50
2018-09-20T09:26:32.698Z,2.40
2018-09-20T09:27:32.637Z,2.70
2018-09-20T09:28:32.675Z,2.50
2018-09-20T09:29:32.615Z,2.70
2018-09-20T09:30:32.680Z,2.70
2018-09-20T09:31:32.580Z,2.60
2018-09-20T09:32:32.585Z,2.60
2018-09-20T09:33:32.559Z,2.20
2018-09-20T09:34:32.558Z,2.30
2018-09-20T09:35:32.595Z,2.70
2018-09-20T09:36:32.529Z,2.60
2018-09-20T09:37:32.522Z,2.40
2018-09-20T09:38:32.607Z,2.40
2018-09-20T09:39:32.512Z,2.90
2018-09-20T09:40:32.532Z,2.80
2018-09-20T09:41:32.476Z,2.50
2018-09-20T09:42:32.467Z,2.50
2018-09-20T09:43:32.453Z,2.40
2018-09-20T09:44:32.495Z,2.50
2018-09-20T09:45:32.438Z,2.60
2018-09-20T09:46:32.444Z,2.70
2018-09-20T09:47:32.407Z,2.60
2018-09-20T09:48:32.418Z,3.00
2018-09-20T09:49:32.387Z,2.50
2018-09-20T09:50:32.453Z,2.50
2018-09-20T09:51:32.468Z,2.50
2018-09-20T09:52:32.362Z,2.70
2018-09-20T09:53:32.341Z,2.40
2018-09-20T09:54:32.421Z,2.70
2018-09-20T09:55:32.326Z,2.60
2018-09-20T09:56:32.364Z,2.90
2018-09-20T09:57:32.297Z,2.80
2018-09-20T09:58:32.309Z,2.90
2018-09-20T09:59:32.282Z,2.90
2018-09-20T10:00:32.270Z,2.50
2018-09-20T10:01:32.257Z,2.60
2018-09-20T10:02:32.330Z,3.00
2018-09-20T10:03:32.281Z,2.80
2018-09-20T10:04:32.289Z,2.50
2018-09-20T10:05:32.221Z,2.70
2018-09-20T10:06:32.203Z,2.70
2018-09-20T10:07:32.214Z,3.00
2018-09-20T10:08:32.224Z,3.10
2018-09-20T10:09:32.169Z,3.00
2018-09-20T10:10:32.177Z,2.90
2018-09-20T10:11:32.160Z,2.90
2018-09-20T10:12:32.182Z,3.00
2018-09-20T10:13:32.239Z,2.80
2018-09-20T10:14:32.141Z,2.90
2018-09-20T10:15:32.113Z,2.80
2018-09-20T10:16:32.127Z,3.00
2018-09-20T10:17:32.080Z,2.80
2018-09-20T10:18:32.104Z,2.80
2018-09-20T10:19:32.218Z,3.20
2018-09-20T10:20:32.046Z,2.70
2018-09-20T10:21:32.054Z,2.80
2018-09-20T10:22:32.030Z,2.70
2018-09-20T10:23:32.054Z,2.80
2018-09-20T10:24:32.007Z,2.50
2018-09-20T10:25:32.014Z,3.00
2018-09-20T10:26:32.030Z,2.90
2018-09-20T10:27:31.993Z,2.80
2018-09-20T10:28:31.962Z,2.60
2018-09-20T10:29:32.035Z,2.70
2018-09-20T10:30:31.943Z,2.70
2018-09-20T10:31:31.994Z,2.90
2018-09-20T10:32:31.923Z,2.80
2018-09-20T10:33:31.918Z,2.80
2018-09-20T10:34:31.925Z,2.70
2018-09-20T10:35:31.912Z,2.70
2018-09-20T10:36:31.894Z,2.80
2018-09-20T10:37:31.867Z,2.80
2018-09-20T10:38:31.910Z,2.80
2018-09-20T10:39:31.874Z,2.70
2018-09-20T10:40:31.850Z,2.80
2018-09-20T10:41:31.824Z,2.40
2018-09-20T10:42:31.818Z,2.70
2018-09-20T10:43:31.804Z,2.80
2018-09-20T10:44:31.854Z,2.70
2018-09-20T10:45:31.844Z,2.80
2018-09-20T10:46:31.779Z,3.00
2018-09-20T10:47:31.764Z,2.80
2018-09-20T10:48:31.756Z,2.70
2018-09-20T10:49:31.793Z,2.80
2018-09-20T10:50:31.761Z,3.00
2018-09-20T10:51:31.718Z,2.50
2018-09-20T10:52:31.714Z,2.90
2018-09-20T10:53:31.698Z,2.80
2018-09-20T10:54:31.731Z,2.60
2018-09-20T10:55:31.677Z,2.60
2018-09-20T10:56:31.738Z,2.50
2018-09-20T10:57:31.663Z,2.40
2018-09-20T10:58:31.678Z,2.80
2018-09-20T10:59:31.635Z,2.80
2018-09-20T11:00:31.655Z,2.90
2018-09-20T11:01:31.664Z,2.60
2018-09-20T11:02:31.609Z,2.60
2018-09-20T11:03:31.694Z,2.60
2018-09-20T11:04:31.580Z,2.70
2018-09-20T11:05:31.570Z,2.60
2018-09-20T11:06:31.625Z,3.00
2018-09-20T11:07:31.581Z,3.00
2018-09-20T11:08:31.540Z,3.10
2018-09-20T11:09:31.526Z,2.80
2018-09-20T11:10:31.546Z,2.40
2018-09-20T11:11:31.536Z,2.80
2018-09-20T11:12:31.513Z,2.80
2018-09-20T11:13:31.485Z,2.60
2018-09-20T11:14:31.498Z,2.80
2018-09-20T11:15:31.465Z,2.70
2018-09-20T11:16:31.455Z,2.70
2018-09-20T11:17:31.573Z,2.70
2018-09-20T11:18:31.431Z,2.50
2018-09-20T11:19:31.419Z,2.50
2018-09-20T11:20:31.408Z,3.00
2018-09-20T11:21:31.447Z,2.80
2018-09-20T11:22:31.410Z,3.10
2018-09-20T11:23:31.383Z,2.40
2018-09-20T11:24:31.405Z,2.60
2018-09-20T11:25:31.354Z,2.80
2018-09-20T11:26:31.343Z,2.60
2018-09-20T11:27:31.388Z,2.30
2018-09-20T11:28:31.321Z,2.70
2018-09-20T11:29:31.328Z,2.60
2018-09-20T11:30:31.300Z,2.90
2018-09-20T11:31:31.292Z,2.60
2018-09-20T11:32:31.354Z,2.60
2018-09-20T11:33:31.307Z,2.80
2018-09-20T11:34:31.274Z,2.30
2018-09-20T11:35:31.291Z,2.60
2018-09-20T11:36:31.302Z,2.50
2018-09-20T11:37:31.238Z,2.70
2018-09-20T11:38:31.242Z,2.80
2018-09-20T11:39:31.251Z,2.90
2018-09-20T11:40:31.237Z,2.50
2018-09-20T11:41:31.188Z,2.70
2018-09-20T11:42:31.206Z,2.80
2018-09-20T11:43:31.177Z,2.50
2018-09-20T11:44:31.174Z,2.80
2018-09-20T11:45:31.148Z,2.40
2018-09-20T11:46:31.147Z,2.40
2018-09-20T11:47:31.120Z,2.80
2018-09-20T11:48:31.110Z,2.70
2018-09-20T11:49:31.126Z,2.50
2018-09-20T11:50:31.090Z,2.40
2018-09-20T11:51:31.187Z,2.70
2018-09-20T11:52:31.073Z,2.70
2018-09-20T11:53:31.054Z,2.40
2018-09-20T11:54:31.080Z,2.30
2018-09-20T11:55:31.050Z,2.50
2018-09-20T11:56:31.029Z,2.30
2018-09-20T11:57:31.043Z,2.70
2018-09-20T11:58:31.001Z,2.50
2018-09-20T11:59:31.039Z,2.30
2018-09-20T12:00:30.980Z,2.40
2018-09-20T12:01:30.984Z,2.80
2018-09-20T12:02:30.959Z,2.40
2018-09-20T12:03:30.955Z,2.50
2018-09-20T12:04:30.957Z,2.40
2018-09-20T12:05:30.957Z,2.50
2018-09-20T12:06:30.920Z,2.40
2018-09-20T12:07:30.926Z,2.50
2018-09-20T12:08:30.895Z,2.40
2018-09-20T12:09:30.887Z,2.30
2018-09-20T12:10:30.940Z,2.60
2018-09-20T12:11:30.917Z,2.30
2018-09-20T12:12:30.856Z,2.30
2018-09-20T12:13:30.847Z,2.50
2018-09-20T12:14:30.880Z,2.20
2018-09-20T12:15:30.837Z,2.20
2018-09-20T12:16:30.838Z,2.30
2018-09-20T12:17:30.827Z,2.40
2018-09-20T12:18:30.818Z,2.40
2018-09-20T12:19:30.789Z,2.40
2018-09-20T12:20:30.825Z,2.10
2018-09-20T12:21:30.810Z,2.40
2018-09-20T12:22:30.763Z,2.20
2018-09-20T12:23:30.753Z,2.50
2018-09-20T12:24:30.731Z,2.40
2018-09-20T12:25:30.719Z,2.30
2018-09-20T12:26:30.762Z,2.20
2018-09-20T12:27:30.712Z,2.30
2018-09-20T12:28:30.688Z,2.30
2018-09-20T12:29:30.690Z,1.90
2018-09-20T12:30:30.672Z,2.20
2018-09-20T12:31:30.687Z,2.10
2018-09-20T12:32:30.697Z,2.00
2018-09-20T12:33:30.666Z,2.20
2018-09-20T12:34:30.633Z,1.80
2018-09-20T12:35:30.712Z,2.30
2018-09-20T12:36:30.608Z,2.10
2018-09-20T12:37:30.697Z,2.00
2018-09-20T12:38:30.592Z,2.00
2018-09-20T12:39:30.584Z,2.00
2018-09-20T12:40:30.616Z,1.90
2018-09-20T12:41:30.559Z,2.30
2018-09-20T12:42:30.597Z,2.10
2018-09-20T12:43:30.584Z,2.00
2018-09-20T12:44:30.547Z,1.90
2018-09-20T12:45:30.565Z,2.20
2018-09-20T12:46:30.512Z,2.10
2018-09-20T12:47:30.512Z,2.00
2018-09-20T12:48:30.559Z,2.00
2018-09-20T12:49:30.479Z,2.10
2018-09-20T12:50:30.474Z,2.40
2018-09-20T12:51:30.473Z,2.20
2018-09-20T12:52:30.453Z,2.00
2018-09-20T12:53:30.529Z,1.90
2018-09-20T12:54:30.463Z,2.50
2018-09-20T12:55:30.630Z,2.20
2018-09-20T12:56:30.406Z,1.90
2018-09-20T12:57:30.408Z,1.90
2018-09-20T12:58:30.395Z,2.00
2018-09-20T12:59:30.413Z,2.20
2018-09-20T13:00:30.466Z,2.20
2018-09-20T13:01:30.393Z,1.90
2018-09-20T13:02:30.354Z,2.00
2018-09-20T13:03:30.373Z,2.10
2018-09-20T13:04:30.364Z,2.30
2018-09-20T13:05:30.332Z,2.30
2018-09-20T13:06:30.305Z,2.60
2018-09-20T13:07:30.296Z,2.00
2018-09-20T13:08:30.287Z,2.20
2018-09-20T13:09:30.328Z,2.50
2018-09-20T13:10:30.265Z,2.20
2018-09-20T13:11:30.261Z,2.50
2018-09-20T13:12:30.284Z,2.30
2018-09-20T13:13:30.251Z,2.10
2018-09-20T13:14:30.244Z,2.00
2018-09-20T13:15:30.233Z,2.10
2018-09-20T13:16:30.204Z,2.20
2018-09-20T13:17:30.187Z,2.30
2018-09-20T13:18:30.185Z,2.50